Tiempo atmosférico en la estación meteorológica de Coria, Cáceres (313 m.)



Fecha
DESCASC
Temp. máxima en grados centígrados (hora)
DESCASC
Temp. mínima en grados centígrados (hora)
DESCASC
Temp. media en grados centígrados
DESCASC
Racha de viento máxima en m/sg (hora)
DESCASC
Velocidad máxima media en intervalos de 10 minutos(hora)
DESCASC
Precipitaciones diarias en mm
DESCASC
Precipitaciones de 00:00 a 06:00 en mm
DESCASC
Precipitaciones de 06:00 a 12:00 en mm
DESCASC
Precipitaciones de 12:00 a 18:00 en mm
DESCASC
Precipitaciones de 18:00 a 24:00 en mm
DESCASC
27-01-2020 11.8 (16:40) 7.3 (03:20) 9.6 6.39 (18:50) 3.61 (13:00) 2.4 0 0 0.2 2.2
26-01-2020 13.8 (16:40) 1 (09:00) 7.4 5 (16:30) 3.33 (03:20) 0 0 0 0 0
25-01-2020 11.6 (17:00) 6.2 (00:00) 8.9 9.72 (04:00) 5 (00:40) 10.8 4.6 3.6 2.6 0
24-01-2020 11 (15:40) 7.5 (00:00) 9.3 10 (13:00) 6.11 (12:30) 0.6 0.2 0.2 0 0.2
23-01-2020 8.9 (01:10) 6.2 (00:00) 7.5 13.89 (13:20) 8.61 (13:30) 8.2 2.2 5 1 0
22-01-2020 10.8 (16:40) 5.8 (00:00) 8.3 14.17 (13:30) 9.17 (13:30) 0 0 0 0 0
21-01-2020 10.8 (13:30) 5.3 (00:00) 8.1 16.11 (11:30) 9.72 (06:40) 0 0 0 0 0
20-01-2020 -- (--) -- (--) -- -- (--) -- (--) 0 0 0 0 0
19-01-2020 -- (--) -- (--) -- -- (--) -- (--) 0.2 0 0 0.2 0
18-01-2020 11.5 (18:10) 8.3 (00:00) 9.9 10 (08:20) 6.67 (08:20) 10.2 4.8 5 0.4 0
17-01-2020 15.3 (16:40) 8.8 (00:00) 12.1 5.56 (12:10) 2.78 (12:10) 0 0 0 0 0
16-01-2020 15 (15:20) 9.3 (00:00) 12.2 10.56 (14:00) 5.83 (14:00) 0.4 0 0 0 0.4
15-01-2020 10.9 (16:10) 8.6 (00:00) 9.8 10.56 (19:00) 6.39 (19:00) 4.6 0 1.2 3 0.4
14-01-2020 10.1 (15:20) 1.8 (00:00) 6 6.11 (22:30) 4.17 (20:30) 0.4 0 0 0 0.4
13-01-2020 12.2 (16:30) -1 (-00:0) 5.6 5 (12:00) 3.61 (12:00) 0 0 0 0 0
12-01-2020 13.2 (16:50) -1.5 (-00:0) 5.8 4.44 (12:30) 2.5 (23:20) 0 0 0 0 0
11-01-2020 12.6 (15:30) 1.2 (00:00) 6.9 6.67 (14:00) 3.61 (13:00) 0 0 0 0 0
10-01-2020 14 (15:50) 6.2 (00:00) 10.1 12.5 (05:30) 7.22 (13:00) 0 0 0 0 0
09-01-2020 14.7 (16:20) 0.1 (00:00) 7.4 7.22 (23:20) 4.72 (23:30) 0 0 0 0 0
08-01-2020 12.7 (17:10) -2 (-00:0) 5.3 3.61 (09:40) 2.22 (09:00) 0 0 0 0 0
07-01-2020 14.3 (17:10) -0.2 (00:00) 7.1 3.33 (12:10) 1.94 (00:50) 0 0 0 0 0
06-01-2020 12.8 (17:10) -0.2 (00:00) 6.3 4.72 (06:50) 3.06 (07:00) 0 0 0 0 0
05-01-2020 13.7 (16:00) 1 (00:00) 7.3 4.72 (19:40) 2.78 (19:40) 0 0 0 0 0
04-01-2020 13.5 (16:00) 1.1 (00:00) 7.3 9.17 (19:40) 5 (19:40) 0 0 0 0 0
03-01-2020 14.9 (16:20) 2.5 (00:00) 8.7 10 (16:20) 4.72 (17:20) 0 0 0 0 0
02-01-2020 6.9 (16:10) 0.1 (00:00) 3.5 4.72 (12:00) 2.78 (12:10) 0 0 0 0 0
01-01-2020 13.5 (16:50) -1.1 (-00:0) 6.2 6.39 (15:10) 2.78 (14:40) 0 0 0 0 0
31-12-2019 13.4 (16:20) -0.3 (00:00) 6.5 5.28 (12:10) 3.06 (12:00) 0 0 0 0 0
30-12-2019 14.4 (15:50) 1.6 (00:00) 8 5 (14:20) 3.06 (15:50) 0 0 0 0 0

Gráficas

Temp. máximas Temp. mínimas Temp. medias Precipitaciones Rachas de viento máximas Velocidades máximas media en intervalos de 10 minutos

Datos horarios

Fecha y hora oficial Temperatura (ºC) Velocidad del viento (km/h) Dirección del viento Racha (km/h) Dirección de racha Precipitación (mm) Presión (hPa) Tendencia (hPa) Humedad (%)
2020-01-28 23:00:00 12.5 7 Oeste 12 Oeste 0 987.3 0.4 93
2020-01-28 22:00:00 12.3 5 Oeste 20 Oeste 0 987.2 1 93
2020-01-28 21:00:00 12.7 6 Oeste 10 Sur 0 987.1 1.3 92
2020-01-28 20:00:00 13 5 Oeste 20 Sudoeste 0 986.9 1 91
2020-01-28 19:00:00 13.2 12 Sudoeste 22 Sudoeste 0 986.2 0.2 90
2020-01-28 18:00:00 13.6 15 Sudoeste 26 Oeste 0 985.8 -0.4 89
2020-01-28 17:00:00 14 23 Oeste 35 Oeste 0 985.9 -0.8 87
2020-01-28 16:00:00 14 17 Oeste 28 Oeste 0 986 -1.4 87
2020-01-28 15:00:00 14.2 17 Sudoeste 32 Oeste 0 986.2 -1.3 88
2020-01-28 14:00:00 13.7 13 Sudoeste 24 Sudoeste 0 986.7 -0.2 93
2020-01-28 13:00:00 13.1 11 Sudoeste 26 Sudoeste 0.6 987.4 0.9 96
2020-01-28 12:00:00 13.2 12 Sudoeste 25 Sudoeste 0 987.5 1.6 93
2020-01-28 11:00:00 12.8 9 Sudoeste 18 Sudoeste 0 986.9 1.5 95
2020-01-28 10:00:00 12.4 7 Sudoeste 15 Sudoeste 0 986.5 1.2 95
2020-01-28 09:00:00 12.1 5 Sudoeste 15 Oeste 0 985.9 0.8 96
2020-01-28 08:00:00 12.2 10 Oeste 27 Oeste 0 985.4 0.3 96
2020-01-28 07:00:00 12.2 15 Sudoeste 27 Oeste 0 985.3 -0.3 96
2020-01-28 06:00:00 12.1 17 Oeste 28 Oeste 0 985.1 -0.5 96
2020-01-28 05:00:00 11.8 10 Oeste 21 Oeste 0 985.1 -0.7 96
2020-01-28 04:00:00 11.5 16 Sudoeste 27 Oeste 0 985.6 -0.4 95
2020-01-28 03:00:00 11.5 11 Sudoeste 21 Sudoeste 0 985.6 -0.4 96
2020-01-28 02:00:00 11.8 8 Sudoeste 25 Oeste 0 985.8 -0.3 95
2020-01-28 01:00:00 11.8 10 Oeste 17 Sudoeste 0 986 0.1 98
2020-01-28 00:00:00 11.6 8 Sudoeste 19 Sudoeste 0 986 0.4 98
2020-01-27 23:00:00 11.4 8 Sudoeste 15 Sur 0.4 986.1 0.6 98
2020-01-27 22:00:00 11.3 6 Sudoeste 14 Sudoeste 0.8 985.9 0.5 98
2020-01-27 21:00:00 11.2 5 Sur 16 Sudoeste 0 985.6 0.4 98
2020-01-27 20:00:00 10.9 4 Sur 17 Sudoeste 0.4 985.5 0.2 97
2020-01-27 19:00:00 11 6 Sudoeste 23 Sudoeste 0.6 985.4 -0.1 96
2020-01-27 18:00:00 11.5 12 Sur 22 Sur 0.2 985.2 -0.8 92
2020-01-27 17:00:00 11.6 8 Sur 19 Sur 0 985.3 -1.6 92
2020-01-27 16:00:00 11.7 10 Sur 18 Sudoeste 0 985.5 -1.9 87
2020-01-27 15:00:00 11.3 10 Sur 22 Sur 0 986 -1.8 85
2020-01-27 14:00:00 11.1 9 Sudoeste 19 Sur 0 986.9 -0.9 86
2020-01-27 13:00:00 10.9 13 Sur 22 Sur 0 987.4 -0.1 87
2020-01-27 12:00:00 10 12 Sur 21 Sur 0 987.8 0.6 93
2020-01-27 11:00:00 9.1 9 Sur 17 Sudoeste 0 987.8 0.9 95
2020-01-27 10:00:00 8.4 8 Sur 18 Sudeste 0 987.5 0.7 96
2020-01-27 09:00:00 8 6 Sudeste 15 Sudeste 0 987.2 0.1 96
2020-01-27 08:00:00 7.8 6 Este 12 Sudeste 0 986.9 -0.6 96
2020-01-27 07:00:00 7.8 7 Este 12 Este 0 986.8 -1.2 97
2020-01-27 06:00:00 7.6 5 Este 10 Este 0 987.1 -0.8 96
2020-01-27 05:00:00 7.5 2 Este 5 Sur 0 987.5 -0.9 95
2020-01-27 04:00:00 7.6 3 Sur 8 Sudeste 0 988 -0.6 95
2020-01-27 03:00:00 7.4 5 Este 8 Sudeste 0 987.9 -0.6 94
2020-01-27 02:00:00 7.8 3 Este 7 Nordeste 0 988.4 -0.1 93
2020-01-27 01:00:00 8.1 2 Nordeste 6 Este 0 988.6 0.1 91
2020-01-27 00:00:00 8.5 2 Sudeste 6 Sur 0 988.5 0.3 87
2020-01-26 23:00:00 8.7 2 Sur 6 Sudeste 0 988.5 0.5 83
2020-01-26 22:00:00 9.9 3 Sudoeste 6 Noroeste 0 988.5 0.9 80
2020-01-26 21:00:00 10.2 2 Oeste 9 Noroeste 0 988.2 1.3 79
2020-01-26 20:00:00 10.6 3 Noroeste 11 Noroeste 0 988 1 76
2020-01-26 19:00:00 11.2 5 Noroeste 13 Sudoeste 0 987.6 0.7 73
2020-01-26 18:00:00 11.5 5 Sur 11 Sur 0 986.9 -0.1 73
2020-01-26 17:00:00 12.8 7 Sudoeste 18 Oeste 0 987 -0.8 65
2020-01-26 16:00:00 12.8 8 Sudoeste 14 Sudoeste 0 986.9 -1.2 68
2020-01-26 15:00:00 11.7 4 Sur 14 Sudoeste 0 987 -1.4 75
2020-01-26 14:00:00 8.8 4 Oeste 11 Sudoeste 0 987.8 -0.1 94
2020-01-26 13:00:00 6.9 2 Sur 8 Sudeste 0 988.1 1 99
2020-01-26 12:00:00 4.5 2 Sur 8 Sur 0 988.4 2 99
2020-01-26 11:00:00 3.1 4 Sudeste 8 Sudeste 0 987.9 2.3 99
2020-01-26 10:00:00 1.6 2 Noroeste 5 Oeste 0 987.1 2.3 98
2020-01-26 09:00:00 1.1 0 Calma 4 Sur 0 986.4 2 98
2020-01-26 08:00:00 1.6 0 Calma 7 Sudeste 0 985.6 1.5 98
2020-01-26 07:00:00 2.5 4 Este 8 Este 0 984.8 1.1 97
2020-01-26 06:00:00 2.8 2 Norte 5 Este 0 984.4 1.1 96
2020-01-26 05:00:00 4.2 3 Este 8 Norte 0 984.1 1 96
2020-01-26 04:00:00 5.2 4 Norte 15 Noroeste 0 983.7 0.7 96
2020-01-26 03:00:00 5.2 10 Noroeste 14 Noroeste 0 983.3 0.6 98
2020-01-26 02:00:00 5.1 6 Noroeste 12 Noroeste 0 983.1 0.9 97
2020-01-26 01:00:00 5.1 9 Oeste 16 Noroeste 0 983 1.3 97
2020-01-26 00:00:00 6.3 11 Noroeste 17 Noroeste 0 982.7 1.7 98
2020-01-25 23:00:00 7.5 9 Noroeste 13 Noroeste 0 982.2 1.6 98
2020-01-25 22:00:00 8.1 4 Oeste 6 Oeste 0 981.7 1.7 96
2020-01-25 21:00:00 9.2 4 Este 6 Nordeste 0 981 1.6 92
2020-01-25 20:00:00 10 0 Calma 5 Norte 0 980.6 1.7 94
2020-01-25 19:00:00 10.4 2 Sudoeste 6 Sur 0 980 1.3 92
2020-01-25 18:00:00 10.8 3 Sudeste 8 Sudeste 0 979.4 0.5 90
2020-01-25 17:00:00 11.4 3 Nordeste 10 Este 0 978.9 -0.3 83
2020-01-25 16:00:00 10.4 6 Este 11 Este 1 978.7 -1.1 94
2020-01-25 15:00:00 9.9 6 Oeste 13 Nordeste 1.6 978.9 -1.1 92
2020-01-25 14:00:00 11.1 5 Nordeste 12 Nordeste 0 979.2 -0.4 93
2020-01-25 13:00:00 9.8 8 Este 19 Este 0 979.8 0.5 97
2020-01-25 12:00:00 8.8 12 Este 21 Este 1.4 980 1.2 99
2020-01-25 11:00:00 8.3 11 Este 20 Este 0.6 979.6 1.3 98
2020-01-25 10:00:00 7.8 10 Este 23 Este 0.6 979.3 1.3 98
2020-01-25 09:00:00 7.8 12 Este 21 Este 0.2 978.8 0.9 97
2020-01-25 08:00:00 7.7 12 Este 19 Este 0.4 978.3 0.1 97
2020-01-25 07:00:00 7.6 15 Este 29 Este 0.4 978 -0.3 96
2020-01-25 06:00:00 7.6 12 Nordeste 24 Nordeste 1 977.9 -0.9 96
2020-01-25 05:00:00 7.7 10 Este 31 Este 0.6 978.2 -1.3 94
2020-01-25 04:00:00 7.9 17 Este 35 Este 1 978.3 -1.6 95
2020-01-25 03:00:00 8 17 Este 32 Este 0.6 978.8 -1.4 96
2020-01-25 02:00:00 8 14 Este 27 Este 0.8 979.5 -0.8 96
2020-01-25 01:00:00 8.2 15 Este 29 Sudeste 0.6 979.9 -0.7 92
2020-01-25 00:00:00 8.8 10 Este 32 Este 0.2 980.2 -0.5 88
2020-01-24 23:00:00 9.5 15 Este 27 Este 0 980.3 -0.3 84
2020-01-24 22:00:00 9.1 13 Este 22 Este 0 980.6 0.1 85
2020-01-24 21:00:00 9.2 12 Este 23 Este 0 980.7 0.2 88
2020-01-24 20:00:00 8.8 12 Este 20 Este 0 980.6 -0.3 88
2020-01-24 19:00:00 8.9 10 Este 17 Este 0 980.5 -0.6 88
2020-01-24 18:00:00 9.8 9 Este 28 Este 0 980.5 -1 86
2020-01-24 17:00:00 10.8 16 Este 31 Este 0 980.9 -1.3 81
2020-01-24 16:00:00 10.8 18 Este 31 Este 0 981.1 -2 81
2020-01-24 15:00:00 10.8 16 Este 33 Este 0 981.5 -1.9 82
2020-01-24 14:00:00 10.4 18 Este 35 Este 0 982.2 -0.9 84
2020-01-24 13:00:00 9.5 21 Este 36 Este 0 983.1 0.4 88
2020-01-24 12:00:00 8.9 18 Este 31 Este 0 983.4 1 91
2020-01-24 11:00:00 7.8 13 Este 20 Este 0.2 983.1 1.1 94
2020-01-24 10:00:00 7.7 13 Este 19 Este 0 982.7 1.1 92
2020-01-24 09:00:00 7.5 13 Este 21 Este 0 982.4 1.1 94
2020-01-24 08:00:00 7.6 13 Este 27 Este 0 982 0.5 95
2020-01-24 07:00:00 7.8 14 Este 24 Este 0 981.6 0 97
2020-01-24 06:00:00 8 15 Este 24 Este 0 981.3 -0.1 98
2020-01-24 05:00:00 7.9 13 Este 21 Este 0 981.5 0.2 98
2020-01-24 04:00:00 7.9 12 Este 24 Este 0.2 981.6 0.2 98
2020-01-24 03:00:00 8 14 Este 26 Este 0 981.4 0.1 97
2020-01-24 02:00:00 8.1 13 Este 23 Este 0 981.3 0.3 96
2020-01-24 01:00:00 8.1 13 Este 27 Este 0 981.4 0.8 96
2020-01-24 00:00:00 8.2 17 Este 27 Este 0 981.3 1 95
2020-01-23 23:00:00 8.2 15 Este 27 Este 0 981 1 94
2020-01-23 22:00:00 8.2 18 Este 31 Este 0 980.6 1.1 93
2020-01-23 21:00:00 8 18 Este 33 Este 0 980.3 1.2 94
2020-01-23 20:00:00 8.1 22 Este 37 Este 0 980 1.2 93
2020-01-23 19:00:00 8.1 22 Este 39 Este 0 979.5 0.6 91
2020-01-23 18:00:00 8.2 21 Este 39 Este 0 979.1 -0.1 90
2020-01-23 17:00:00 8 22 Este 41 Sudeste 0 978.8 -0.9 92
2020-01-23 16:00:00 7.5 21 Este 42 Este 0.4 978.9 -1.3 94
2020-01-23 15:00:00 7.2 27 Este 45 Este 0.2 979.2 -1.4 93
2020-01-23 14:00:00 6.9 26 Este 50 Este 0.4 979.7 -0.3 94
2020-01-23 13:00:00 7.1 26 Este 49 Este 0 980.2 0.6 91
2020-01-23 12:00:00 7.1 28 Este 42 Este 0 980.6 1.4 89
2020-01-23 11:00:00 6.7 24 Este 42 Este 0.2 980 1.2 94
2020-01-23 10:00:00 6.2 22 Este 39 Este 0.6 979.6 1.1 95
2020-01-23 09:00:00 6.2 19 Este 35 Este 1.6 979.2 0.6 96
2020-01-23 08:00:00 6.4 19 Este 37 Este 0.8 978.8 -0.1 95
2020-01-23 07:00:00 6.5 23 Este 39 Este 1.8 978.5 -0.6 94
2020-01-23 06:00:00 6.8 20 Este 40 Este 1 978.6 -0.4 93
2020-01-23 05:00:00 7.3 23 Este 35 Este 0.2 978.9 -0.3 90
2020-01-23 04:00:00 7.3 15 Este 33 Este 0.8 979.1 -0.2 91
2020-01-23 03:00:00 7.8 16 Este 29 Este 0 979 -0.4 85
2020-01-23 02:00:00 7.9 12 Este 44 Este 0.2 979.2 -0.1 84
2020-01-23 01:00:00 8.8 21 Este 37 Este 0 979.3 0 75
2020-01-23 00:00:00 8 8 Este 15 Este 0 979.4 0.4 77
2020-01-22 23:00:00 8.6 8 Este 13 Este 0 979.3 0.5 74
2020-01-22 22:00:00 8.9 5 Este 15 Este 0 979.3 0.5 71
2020-01-22 21:00:00 9.8 8 Este 17 Nordeste 0 979 0.4 66
2020-01-22 20:00:00 9.8 8 Nordeste 15 Nordeste 0 978.8 0.1 69
2020-01-22 19:00:00 9.6 7 Este 12 Este 0 978.8 0 71
2020-01-22 18:00:00 10.2 7 Este 26 Este 0 978.6 -0.6 69
2020-01-22 17:00:00 10.7 14 Este 34 Este 0 978.7 -1.2 67
2020-01-22 16:00:00 10.7 24 Este 44 Este 0 978.8 -1.8 67
2020-01-22 15:00:00 10.6 22 Este 41 Este 0 979.2 -1.6 69
2020-01-22 14:00:00 10.4 27 Este 51 Este 0 979.9 -0.9 70
2020-01-22 13:00:00 9.9 29 Este 50 Este 0 980.6 0.2 70
2020-01-22 12:00:00 10 28 Este 48 Este 0 980.8 0.8 68
2020-01-22 11:00:00 8.7 13 Este 22 Este 0 980.8 1.3 74
2020-01-22 10:00:00 8 9 Este 29 Este 0 980.4 1.3 73
2020-01-22 09:00:00 7.8 12 Este 24 Este 0 980 0.7 72
2020-01-22 08:00:00 7.9 6 Este 30 Nordeste 0 979.5 -0.1 71
2020-01-22 07:00:00 8.6 17 Nordeste 32 Nordeste 0 979.1 -0.9 68
2020-01-22 06:00:00 8.3 14 Nordeste 28 Nordeste 0 979.3 -0.6 69
2020-01-22 05:00:00 6 0 Calma 10 Nordeste 0 979.6 -0.7 79
2020-01-22 04:00:00 6.2 6 Este 10 Sudeste 0 980 -0.1 77
2020-01-22 03:00:00 6 4 Este 20 Nordeste 0 979.9 -0.4 76
2020-01-22 02:00:00 7.1 11 Nordeste 33 Nordeste 0 980.3 0.3 69
2020-01-22 01:00:00 7.2 20 Nordeste 31 Nordeste 0 980.1 1 69
2020-01-22 00:00:00 7.4 14 Nordeste 33 Nordeste 0 980.3 1 71
2020-01-21 23:00:00 8.2 17 Nordeste 30 Nordeste 0 980 1 66
2020-01-21 22:00:00 8.4 16 Nordeste 37 Nordeste 0 979.1 0.2 67
2020-01-21 21:00:00 8.6 12 Este 42 Nordeste 0 979.3 0.5 64
2020-01-21 20:00:00 9.1 21 Nordeste 43 Nordeste 0 979 0.2 61
2020-01-21 19:00:00 9.3 19 Nordeste 44 Nordeste 0 978.9 -0.2 59
2020-01-21 18:00:00 9.3 26 Nordeste 46 Nordeste 0 978.8 -0.8 57
2020-01-21 17:00:00 9.2 26 Nordeste 50 Nordeste 0 978.8 -1.2 59
2020-01-21 16:00:00 9.1 22 Nordeste 51 Nordeste 0 979.1 -2.1 57
2020-01-21 15:00:00 9.6 26 Nordeste 49 Nordeste 0 979.6 -2.6 54
2020-01-21 14:00:00 10.2 31 Nordeste 50 Nordeste 0 980 -2.5 51
2020-01-21 13:00:00 10.1 24 Nordeste 49 Este 0 981.2 -1.1 50
2020-01-21 12:00:00 7.8 24 Nordeste 58 Nordeste 0 982.2 -0.2 55
2020-01-21 11:00:00 8.1 29 Nordeste 52 Nordeste 0 982.5 -0.3 53
2020-01-21 10:00:00 6.8 22 Nordeste 55 Nordeste 0 982.3 -0.3 55
2020-01-21 09:00:00 5.5 28 Nordeste 46 Nordeste 0 982.4 -0.8 59
2020-01-21 08:00:00 5.5 17 Norte 49 Nordeste 0 982.8 -0.3 60
2020-01-21 07:00:00 5.7 29 Nordeste 58 Nordeste 0 982.6 -1.1 57
2020-01-21 06:00:00 5.3 24 Nordeste 47 Nordeste 0 983.2 -0.9 58
2020-01-21 05:00:00 6.2 30 Nordeste 56 Nordeste 0 983.1 -1.5 56
2020-01-21 04:00:00 5.6 31 Nordeste 57 Nordeste 0 983.7 -1.6 58
2020-01-21 03:00:00 5.4 23 Nordeste 55 Norte 0 984.1 -1.3 61
2020-01-21 02:00:00 5.3 26 Nordeste 58 Nordeste 0 984.6 -0.3 61
2020-01-21 01:00:00 5.6 26 Nordeste 52 Nordeste 0 985.3 0.5 57
2020-01-21 00:00:00 5.8 27 Nordeste 49 Nordeste 0 985.4 0.6 53
2020-01-20 23:00:00 6.4 26 Nordeste 57 Norte 0 984.9 0.2 51
2020-01-20 22:00:00 6.7 32 Nordeste 57 Nordeste 0 984.8 0.3 48
2020-01-20 21:00:00 6.6 30 Nordeste 55 Nordeste 0 984.8 0.6 47
2020-01-20 20:00:00 6.6 29 Nordeste 58 Nordeste 0 984.7 0.7 46
2020-01-20 19:00:00 6.8 28 Nordeste 49 Nordeste 0 984.5 0.3 44
2020-01-20 18:00:00 7.7 28 Nordeste 57 Nordeste 0 984.2 -0.5 41
2020-01-20 17:00:00 7.9 32 Nordeste 60 Nordeste 0 984 -1.4 41
2020-01-20 16:00:00 8.6 31 Nordeste 66 Nordeste 0 984.2 -2.2 39
2020-01-20 15:00:00 8.4 30 Nordeste 64 Nordeste 0 984.7 -2 39
2020-01-20 14:00:00 7.6 33 Nordeste 66 Nordeste 0 985.4 -1.7 39
2020-01-20 13:00:00 7.8 32 Nordeste 60 Nordeste 0 986.4 -- 36
2020-01-20 12:00:00 7.1 33 Nordeste 55 Este 0 986.7 -- 39
2020-01-20 11:00:00 5.9 31 Nordeste -- -- -- 987.1 -- 42
2020-01-20 10:00:00 -- -- -- -- -- -- -- -- --
2020-01-20 09:00:00 -- -- -- -- -- -- -- -- --
2020-01-20 08:00:00 -- -- -- -- -- -- -- -- --
2020-01-20 07:00:00 -- -- -- -- -- -- -- -- --
2020-01-20 06:00:00 -- -- -- -- -- -- -- -- --
2020-01-20 05:00:00 -- -- -- -- -- -- -- -- --
2020-01-20 04:00:00 -- -- -- -- -- -- -- -- --
2020-01-20 03:00:00 -- -- -- -- -- -- -- -- --
2020-01-20 02:00:00 -- -- -- -- -- -- -- -- --
2020-01-20 01:00:00 -- -- -- -- -- -- -- -- --
2020-01-20 00:00:00 -- -- -- -- -- -- -- -- --
2020-01-19 23:00:00 -- -- -- -- -- -- -- -- --
2020-01-19 22:00:00 6.8 40 Nordeste 81 Nordeste 0 988.4 0.7 38
2020-01-19 21:00:00 7.6 34 Nordeste 66 Nordeste 0 988.6 1.6 34
2020-01-19 20:00:00 8.5 30 Nordeste 60 Nordeste 0 988.2 1.1 33
2020-01-19 19:00:00 9.5 28 Nordeste 63 Nordeste 0 987.7 0.3 35
2020-01-19 18:00:00 11 32 Nordeste 62 Nordeste 0 987 0.2 33
2020-01-19 17:00:00 12 22 Este 61 Nordeste 0 987.1 -0.4 34
2020-01-19 16:00:00 12.6 26 Nordeste 65 Nordeste 0 987.4 -0.3 34
2020-01-19 15:00:00 12.6 31 Nordeste 78 Nordeste 0 986.8 -1.4 32
2020-01-19 14:00:00 12.6 25 Nordeste 61 Este 0.2 987.5 -0.2 38
2020-01-19 13:00:00 12.6 27 Nordeste 57 Nordeste 0 987.7 -- 42
2020-01-19 12:00:00 12.7 25 Nordeste 47 Nordeste 0 988.2 -- 50
2020-01-19 11:00:00 10.7 11 Norte -- -- -- 987.7 -- 65
2020-01-19 10:00:00 -- -- -- -- -- -- -- -- --
2020-01-19 09:00:00 -- -- -- -- -- -- -- -- --
2020-01-19 08:00:00 -- -- -- -- -- -- -- -- --
2020-01-19 07:00:00 -- -- -- -- -- -- -- -- --
2020-01-19 06:00:00 -- -- -- -- -- -- -- -- --
2020-01-19 05:00:00 -- -- -- -- -- -- -- -- --
2020-01-19 04:00:00 -- -- -- -- -- -- -- -- --
2020-01-19 03:00:00 -- -- -- -- -- -- -- -- --
2020-01-19 02:00:00 -- -- -- -- -- -- -- -- --
2020-01-19 01:00:00 8.7 4 Oeste 18 Noroeste 0 986.3 0.8 74
2020-01-19 00:00:00 8.7 12 Noroeste 22 Noroeste 0 986.1 0.6 73
2020-01-18 23:00:00 9.7 8 Noroeste 28 Oeste 0 985.9 0.5 82
2020-01-18 22:00:00 9.4 10 Oeste 28 Oeste 0 985.5 0.1 87
2020-01-18 21:00:00 9.9 14 Oeste 28 Oeste 0 985.5 -0.1 90
2020-01-18 20:00:00 11.3 10 Noroeste 19 Noroeste 0 985.4 -1.2 98
2020-01-18 19:00:00 10.9 7 Noroeste 11 Noroeste 0 985.4 -1.8 97
2020-01-18 18:00:00 11.4 5 Oeste 9 Noroeste 0 985.6 -2.1 97
2020-01-18 17:00:00 11.3 7 Noroeste 12 Noroeste 0 986.6 -2.1 98
2020-01-18 16:00:00 11.2 5 Noroeste 12 Sudeste 0 987.2 -2.7 98
2020-01-18 15:00:00 10.9 8 Sudeste 14 Este 0.2 987.7 -3 98
2020-01-18 14:00:00 10.6 10 Este 24 Este 0 988.7 -2.3 99
2020-01-18 13:00:00 10 8 Este 22 Este 0.2 989.9 -0.7 99
2020-01-18 12:00:00 9.3 15 Este 32 Sudeste 0.2 990.7 0.1 99
2020-01-18 11:00:00 8.9 17 Este 65 Este 0.8 991 0.2 99
2020-01-18 10:00:00 8.7 19 Este 35 Este 0.8 990.6 -0.8 99
2020-01-18 09:00:00 8.6 19 Este 36 Este 0.8 990.6 -1.1 99
2020-01-18 08:00:00 8.7 19 Este 32 Este 0.8 990.8 -0.5 98
2020-01-18 07:00:00 9 18 Este 32 Este 1.6 991.4 -0.5 98
2020-01-18 06:00:00 8.8 12 Este 21 Nordeste 2.4 991.7 -0.6 97
2020-01-18 05:00:00 8.4 12 Este 20 Nordeste 1.4 991.3 -2 95
2020-01-18 04:00:00 8.5 11 Este 18 Este 1 991.9 -2.3 91
2020-01-18 03:00:00 9.2 10 Este 13 Este 0 992.3 -2.1 80
2020-01-18 02:00:00 9.2 9 Este 13 Este 0 993.3 -1.1 79
2020-01-18 01:00:00 9.1 8 Este 13 Este 0 994.2 0 80
2020-01-18 00:00:00 9.1 4 Nordeste 6 Nordeste 0 994.4 -0.1 81
2020-01-17 23:00:00 9.4 4 Sudeste 6 Este 0 994.4 -0.3 78
2020-01-17 22:00:00 9.7 3 Sudeste 5 Este 0 994.2 -0.1 73
2020-01-17 21:00:00 10.1 0 Calma 6 Oeste 0 994.5 0.7 76
2020-01-17 20:00:00 10.5 2 Noroeste 7 Oeste 0 994.7 1.2 73
2020-01-17 19:00:00 11 4 Oeste 9 Sudoeste 0 994.3 0.6 72
2020-01-17 18:00:00 12.2 5 Sudoeste 10 Sudoeste 0 993.8 0.2 66
2020-01-17 17:00:00 14.9 4 Sur 13 Oeste 0 993.5 -0.6 60
2020-01-17 16:00:00 15.1 8 Sudoeste 13 Sudoeste 0 993.7 -1 58
2020-01-17 15:00:00 14 7 Oeste 12 Oeste 0 993.6 -1.7 66
2020-01-17 14:00:00 13 6 Oeste 11 Oeste 0 994.1 -0.5 74
2020-01-17 13:00:00 12.4 7 Oeste 20 Sudoeste 0 994.7 0.9 83
2020-01-17 12:00:00 11.1 6 Sudoeste 12 Sudoeste 0 995.3 2 95
2020-01-17 11:00:00 9.7 5 Sudoeste 10 Oeste 0 994.6 2 96
2020-01-17 10:00:00 9.2 2 Sur 9 Oeste 0 993.8 2 96
2020-01-17 09:00:00 9.2 3 Oeste 6 Oeste 0 993.3 1.7 96
2020-01-17 08:00:00 9.3 4 Sudoeste 9 Sudoeste 0 992.6 1.5 95
2020-01-17 07:00:00 9.5 3 Sur 6 Sudoeste 0 991.8 0.8 95
2020-01-17 06:00:00 9.6 4 Oeste 10 Sudoeste 0 991.6 1.1 95
2020-01-17 05:00:00 9.8 5 Sudoeste 10 Sudoeste 0 991.1 0.5 95
2020-01-17 04:00:00 10 6 Oeste 10 Oeste 0 991 0.7 94
2020-01-17 03:00:00 10 3 Oeste 10 Oeste 0 990.5 1 94
2020-01-17 02:00:00 10 3 Oeste 10 Sudoeste 0 990.6 1.5 93
2020-01-17 01:00:00 10 4 Sudoeste 15 Sudoeste 0 990.3 1.7 93
2020-01-17 00:00:00 9.6 0 Calma 18 Sudoeste 0 989.5 1.2 91
2020-01-16 23:00:00 10.6 11 Sudoeste 22 Sudoeste 0 989.1 1.7 87
2020-01-16 22:00:00 11.3 9 Sudoeste 21 Sudoeste 0.2 988.6 1.2 85
2020-01-16 21:00:00 12.3 11 Sur 24 Sudeste 0.2 988.3 1.4 74
2020-01-16 20:00:00 12.6 10 Sudeste 22 Sudeste 0 987.4 0.6 68
2020-01-16 19:00:00 13.1 14 Sur 24 Sur 0 987.4 0.2 64
2020-01-16 18:00:00 13.2 11 Sudeste 26 Sur 0 986.9 -0.9 67
2020-01-16 17:00:00 13.8 15 Sur 28 Sur 0 986.8 -1.7 65
2020-01-16 16:00:00 13.7 17 Sur 31 Sur 0 987.2 -2.2 67
2020-01-16 15:00:00 14.1 17 Sur 28 Sur 0 987.8 -2.4 68
2020-01-16 14:00:00 14.4 21 Sur 38 Sudoeste 0 988.5 -1.5 70
2020-01-16 13:00:00 13.3 13 Sur 26 Sur 0 989.4 -0.3 79
2020-01-16 12:00:00 12.7 12 Sur 27 Sudeste 0 990.2 1.3 83
2020-01-16 11:00:00 11.7 11 Sudeste 24 Sudeste 0 990 1.1 88
2020-01-16 10:00:00 11.3 12 Sudeste 23 Sudeste 0 989.7 1.3 89
2020-01-16 09:00:00 10.4 14 Sudeste 22 Sudeste 0 988.9 0.5 93
2020-01-16 08:00:00 10.9 13 Sudeste 20 Sudeste 0 988.9 0.2 94
2020-01-16 07:00:00 9.9 11 Este 20 Este 0 988.4 -0.4 95
2020-01-16 06:00:00 9.7 13 Este 23 Este 0 988.4 -0.5 95
2020-01-16 05:00:00 9.7 16 Este 27 Este 0 988.7 -0.4 94
2020-01-16 04:00:00 9.6 16 Este 24 Este 0 988.8 -0.4 94
2020-01-16 03:00:00 9.5 16 Este 26 Este 0 988.9 -0.3 95
2020-01-16 02:00:00 9.6 16 Este 27 Este 0 989.1 0.1 95
2020-01-16 01:00:00 9.5 15 Este 26 Este 0 989.2 0.5 96
2020-01-16 00:00:00 9.3 16 Este 24 Este 0 989.2 0.7 96
2020-01-15 23:00:00 9 16 Este 29 Este 0 989 1 96
2020-01-15 22:00:00 9 15 Este 26 Este 0.4 988.7 1.1 96
2020-01-15 21:00:00 9.2 14 Este 29 Este 0 988.5 1.4 95
2020-01-15 20:00:00 9 18 Este 33 Este 0 988 1.3 95
2020-01-15 19:00:00 8.9 23 Este 38 Este 0 987.6 1.1 96
2020-01-15 18:00:00 9.6 19 Este 30 Este 0 987.1 0.8 94
2020-01-15 17:00:00 10.4 20 Este 31 Este 0 986.7 -0.1 93
2020-01-15 16:00:00 10.8 19 Este 29 Este 0 986.5 -0.6 95
2020-01-15 15:00:00 9.4 18 Este 30 Este 0 986.3 -0.8 97
2020-01-15 14:00:00 9 15 Este 25 Este 1.6 986.8 0.7 97
2020-01-15 13:00:00 9.8 14 Sudeste 23 Sudeste 1.4 987.1 2 95
2020-01-15 12:00:00 9.9 9 Este 16 Sudeste 1 987.1 2.6 91
2020-01-15 11:00:00 9.6 5 Sudeste 17 Sur 0 986.1 2.1 89
2020-01-15 10:00:00 9.3 8 Sudeste 22 Sudeste 0.2 985.1 1.3 89
2020-01-15 09:00:00 9 8 Sudeste 24 Este 0 984.5 1 85
2020-01-15 08:00:00 9 15 Sudeste 24 Sudeste 0 984 0.4 82
2020-01-15 07:00:00 8.9 9 Sudeste 24 Sudeste 0 983.8 -0.3 83
2020-01-15 06:00:00 8.8 10 Sudeste 21 Este 0 983.5 -0.8 84
2020-01-15 05:00:00 8.8 11 Este 19 Sudeste 0 983.6 -0.9 85
2020-01-15 04:00:00 8.7 10 Este 20 Sudeste 0 984.1 -0.5 87
2020-01-15 03:00:00 8.9 10 Sudeste 19 Sur 0 984.3 -0.3 88
2020-01-15 02:00:00 9.4 7 Sudeste 24 Sur 0 984.5 0 88
2020-01-15 01:00:00 9.7 5 Sur 16 Sudeste 0 984.6 0.1 88
2020-01-15 00:00:00 9.5 10 Sur 19 Sur 0 984.6 0.2 89
2020-01-14 23:00:00 9.3 10 Sudeste 22 Sudeste 0 984.5 0 91
2020-01-14 22:00:00 8.9 12 Sudeste 19 Sudeste 0 984.5 -0.2 94
2020-01-14 21:00:00 8 13 Este 21 Este 0 984.4 -0.1 97
2020-01-14 20:00:00 7.9 12 Este 16 Este 0 984.5 0.2 96
2020-01-14 19:00:00 8 8 Este 11 Este 0.4 984.7 0.2 93
2020-01-14 18:00:00 8.9 3 Este 13 Este 0 984.5 -0.3 82
2020-01-14 17:00:00 9.5 8 Este 17 Este 0 984.3 -1.3 73
2020-01-14 16:00:00 9.9 5 Este 15 Este 0 984.5 -2.1 70
2020-01-14 15:00:00 9.8 8 Este 21 Este 0 984.8 -2.3 71
2020-01-14 14:00:00 7.4 8 Este 17 Nordeste 0 985.6 -1.4 83
2020-01-14 13:00:00 6.2 8 Este 14 Este 0 986.6 0.3 88
2020-01-14 12:00:00 5.6 6 Este 12 Este 0 987.1 1 88
2020-01-14 11:00:00 5.3 4 Sur 16 Este 0 987 0.8 90
2020-01-14 10:00:00 4.5 8 Este 17 Este 0 986.3 0.3 89
2020-01-14 09:00:00 4 6 Este 11 Este 0 986.1 0.2 93
2020-01-14 08:00:00 3.6 3 Este 9 Oeste 0 986.2 0.5 93
2020-01-14 07:00:00 2.8 5 Oeste 10 Oeste 0 986 -0.2 94
2020-01-14 06:00:00 2.3 7 Oeste 16 Este 0 985.9 -0.4 94
2020-01-14 05:00:00 2.1 5 Nordeste 18 Este 0 985.7 -1.1 92
2020-01-14 04:00:00 3.7 12 Este 18 Este 0 986.2 -1.1 91
2020-01-14 03:00:00 1.9 6 Este 11 Este 0 986.3 -1.3 93
2020-01-14 02:00:00 2 3 Sudeste 14 Este 0 986.8 -0.9 91
2020-01-14 01:00:00 2.9 8 Este 14 Este 0 987.3 -0.3 90
2020-01-14 00:00:00 3.2 5 Este 8 Este 0 987.6 0.3 87
2020-01-13 23:00:00 4.3 0 Calma 7 Noroeste 0 987.7 0.3 79
2020-01-13 22:00:00 4.9 3 Norte 10 Este 0 987.6 0.6 79
2020-01-13 21:00:00 5.6 5 Este 8 Sudeste 0 987.3 0.3 77
2020-01-13 20:00:00 7 4 Noroeste 6 Oeste 0 987.4 0.2 70
2020-01-13 19:00:00 8.1 0 Calma 5 Sudoeste 0 987 -0.2 67
2020-01-13 18:00:00 10.1 6 Sudoeste 11 Sur 0 987 -1 63
2020-01-13 17:00:00 11.7 7 Sudoeste 14 Sur 0 987.2 -1.9 53
2020-01-13 16:00:00 11.9 8 Sudeste 15 Sudeste 0 987.2 -3 59
2020-01-13 15:00:00 11.2 4 Sur 12 Sudoeste 0 988 -2.9 58
2020-01-13 14:00:00 9.6 3 Sur 9 Oeste 0 989.1 -1.7 67
2020-01-13 13:00:00 7.4 5 Este 13 Este 0 990.2 -0.1 72
2020-01-13 12:00:00 5.2 13 Este 18 Este 0 990.9 0.8 82
2020-01-13 11:00:00 2.7 9 Este 15 Este 0 990.8 1 93
2020-01-13 10:00:00 0.7 9 Este 12 Este 0 990.3 0.4 96
2020-01-13 09:00:00 -0.9 6 Noroeste 8 Noroeste 0 990.1 0.2 96
2020-01-13 08:00:00 -0.2 0 Calma 6 Este 0 989.8 -0.5 95
2020-01-13 07:00:00 0.4 3 Este 4 Sudeste 0 989.9 -1.1 95
2020-01-13 06:00:00 0.6 2 Este 5 Oeste 0 989.9 -1.1 94
2020-01-13 05:00:00 1.4 5 Este 6 Sudeste 0 990.3 -1.1 94
2020-01-13 04:00:00 1.7 0 Calma 4 Oeste 0 991 -1 93
2020-01-13 03:00:00 2.1 0 Calma 4 Noroeste 0 991 -1.2 92
2020-01-13 02:00:00 2.4 0 Calma 4 Este 0 991.4 -0.5 90
2020-01-13 01:00:00 2.8 0 Calma 6 Noroeste 0 992 -0.3 89
2020-01-13 00:00:00 3.1 4 Noroeste 11 Este 0 992.2 -0.2 86
2020-01-12 23:00:00 4.4 3 Sudeste 6 Este 0 991.9 -0.6 80
2020-01-12 22:00:00 5.8 0 Calma 7 Noroeste 0 992.3 0 76
2020-01-12 21:00:00 7.3 5 Este 8 Este 0 992.4 0.5 69
2020-01-12 20:00:00 8.1 2 Sudoeste 5 Oeste 0 992.5 0.5 66
2020-01-12 19:00:00 9.5 2 Norte 4 Noroeste 0 992.3 0.3 62
2020-01-12 18:00:00 11.8 0 Calma 6 Oeste 0 991.9 -0.8 54
2020-01-12 17:00:00 13 4 Oeste 8 Oeste 0 992 -1.6 52
2020-01-12 16:00:00 12.5 3 Sudoeste 10 Oeste 0 992 -2.6 54
2020-01-12 15:00:00 11.1 3 Sudoeste 9 Oeste 0 992.7 -2.8 61
2020-01-12 14:00:00 10.2 4 Sudeste 13 Sudeste 0 993.6 -1.8 62
2020-01-12 13:00:00 7.6 8 Este 16 Este 0 994.6 0 68
2020-01-12 12:00:00 5.4 7 Sudeste 11 Sudeste 0 995.5 1.2 81
2020-01-12 11:00:00 2 3 Sudoeste 6 Oeste 0 995.4 1.2 91
2020-01-12 10:00:00 1 2 Este 5 Este 0 994.6 0.6 95
2020-01-12 09:00:00 -1.4 3 Este 8 Norte 0 994.3 0.5 95
2020-01-12 08:00:00 -0.9 5 Noroeste 9 Noroeste 0 994.2 0.1 95
2020-01-12 07:00:00 -0.2 2 Oeste 6 Noroeste 0 994 -0.6 95
2020-01-12 06:00:00 -0.7 4 Noroeste 7 Sudeste 0 993.8 -0.6 95
2020-01-12 05:00:00 -0.3 4 Este 5 Sudeste 0 994.1 -0.2 93
2020-01-12 04:00:00 0.4 2 Este 4 Sudeste 0 994.6 0.1 92
2020-01-12 03:00:00 1 0 Calma 4 Este 0 994.4 -0.2 88
2020-01-12 02:00:00 1.9 3 Sudeste 5 Sudeste 0 994.3 0 84
2020-01-12 01:00:00 2.6 4 Noroeste 8 Noroeste 0 994.5 0.4 83
2020-01-12 00:00:00 2.4 4 Oeste 8 Oeste 0 994.6 0.5 81
2020-01-11 23:00:00 4 3 Este 7 Este 0 994.3 0.3 75
2020-01-11 22:00:00 5.6 3 Este 7 Sur 0 994.1 0.6 68
2020-01-11 21:00:00 7.1 0 Calma 5 Sur 0 994.1 0.8 61
2020-01-11 20:00:00 7.6 0 Calma 5 Oeste 0 994 0.7 59
2020-01-11 19:00:00 8.8 4 Este 5 Sudeste 0 993.5 0.3 56
2020-01-11 18:00:00 11.2 0 Calma 10 Este 0 993.3 -0.1 50
2020-01-11 17:00:00 12.2 6 Nordeste 21 Este 0 993.3 -1 44
2020-01-11 16:00:00 12.4 12 Este 21 Sudeste 0 993.2 -2.2 45
2020-01-11 15:00:00 12 13 Este 22 Sudeste 0 993.4 -2.7 51
2020-01-11 14:00:00 11.4 12 Sudeste 24 Sudeste 0 994.3 -1.4 56
2020-01-11 13:00:00 10.2 13 Este 21 Este 0 995.4 0.4 56
2020-01-11 12:00:00 8.2 4 Sudeste 12 Sudeste 0 996.1 1.5 68
2020-01-11 11:00:00 6.3 7 Sudeste 10 Este 0 995.7 1.2 73
2020-01-11 10:00:00 4.1 3 Sudeste 8 Sudeste 0 995 0.6 79
2020-01-11 09:00:00 2 5 Noroeste 11 Noroeste 0 994.6 0.6 81
2020-01-11 08:00:00 1.4 4 Noroeste 6 Noroeste 0 994.5 0.5 86
2020-01-11 07:00:00 1.9 2 Norte 5 Noroeste 0 994.4 0.3 84
2020-01-11 06:00:00 2 4 Nordeste 6 Este 0 994 0 82
2020-01-11 05:00:00 3.3 3 Norte 7 Este 0 994 -0.1 77
2020-01-11 04:00:00 4.3 4 Este 9 Sudoeste 0 994.1 -0.1 74
2020-01-11 03:00:00 4.7 0 Calma 5 Sudeste 0 994 -0.3 71
2020-01-11 02:00:00 5.7 6 Este 10 Este 0 994.1 0.1 66
2020-01-11 01:00:00 6 3 Nordeste 10 Noroeste 0 994.2 1 65
2020-01-11 00:00:00 6.2 3 Noroeste 11 Oeste 0 994.3 1.5 66
2020-01-10 23:00:00 6.6 4 Oeste 21 Nordeste 0 994 1.4 65
2020-01-10 22:00:00 9.2 15 Nordeste 41 Nordeste 0 993.2 1.3 54
2020-01-10 21:00:00 9.5 21 Nordeste 41 Nordeste 0 992.8 1.1 53
2020-01-10 20:00:00 9.7 21 Nordeste 39 Norte 0 992.6 1.5 52
2020-01-10 19:00:00 10.6 18 Nordeste 35 Nordeste 0 991.9 0.9 44
2020-01-10 18:00:00 12.4 10 Nordeste 28 Nordeste 0 991.7 0.1 39
2020-01-10 17:00:00 13.7 14 Nordeste 30 Este 0 991.1 -0.2 35
2020-01-10 16:00:00 13.9 12 Nordeste 27 Nordeste 0 991 -1.4 38
2020-01-10 15:00:00 13.4 14 Nordeste 39 Nordeste 0 991.6 -1.2 38
2020-01-10 14:00:00 13.1 25 Este 44 Este 0 991.3 -1 38
2020-01-10 13:00:00 12.5 26 Nordeste 42 Nordeste 0 992.4 0.6 40
2020-01-10 12:00:00 11.6 14 Nordeste 28 Nordeste 0 992.8 1.3 49
2020-01-10 11:00:00 9.3 5 Noroeste 28 Norte 0 992.3 1.5 57
2020-01-10 10:00:00 7.3 13 Norte 29 Norte 0 991.8 1.4 66
2020-01-10 09:00:00 6.4 12 Norte 28 Norte 0 991.5 1.1 70
2020-01-10 08:00:00 6.7 20 Norte 39 Norte 0 990.8 0.6 68
2020-01-10 07:00:00 7.1 18 Norte 44 Norte 0 990.4 0.1 66
2020-01-10 06:00:00 7.9 13 Nordeste 45 Norte 0 990.4 0.3 62
2020-01-10 05:00:00 8.8 22 Nordeste 39 Norte 0 990.2 0 53
2020-01-10 04:00:00 8.4 20 Norte 41 Nordeste 0 990.3 -0.3 56
2020-01-10 03:00:00 8.1 10 Norte 19 Norte 0 990.1 -0.4 57
2020-01-10 02:00:00 8.6 9 Norte 19 Norte 0 990.2 -0.2 69
2020-01-10 01:00:00 8.7 7 Norte 21 Noroeste 0 990.6 1.1 67
2020-01-10 00:00:00 9.1 15 Noroeste 26 Noroeste 0 990.5 1 65
2020-01-09 23:00:00 10 14 Norte 25 Noroeste 0 990.4 1 70
2020-01-09 22:00:00 9.8 5 Norte 11 Norte 0 989.5 0.4 78
2020-01-09 21:00:00 10.5 3 Oeste 17 Noroeste 0 989.5 0.7 77
2020-01-09 20:00:00 10.5 8 Noroeste 13 Noroeste 0 989.4 0.5 76
2020-01-09 19:00:00 10.8 3 Oeste 9 Sudoeste 0 989.1 0.7 74
2020-01-09 18:00:00 12.5 5 Sur 17 Sudoeste 0 988.8 -0.5 69
2020-01-09 17:00:00 13.5 10 Sudoeste 17 Oeste 0 988.9 -1.2 65
2020-01-09 16:00:00 14.5 8 Sudoeste 15 Sur 0 988.4 -2.7 61
2020-01-09 15:00:00 13.3 7 Sudoeste 13 Sudoeste 0 989.3 -2.8 61
2020-01-09 14:00:00 12.1 3 Sudoeste 9 Sudoeste 0 990.1 -1.5 63
2020-01-09 13:00:00 9.1 5 Sudoeste 11 Oeste 0 991.1 -0.1 81
2020-01-09 12:00:00 5.3 6 Oeste 9 Oeste 0 992.1 1 93
2020-01-09 11:00:00 4.5 3 Sudoeste 8 Noroeste 0 991.6 0.9 96
2020-01-09 10:00:00 2.5 3 Este 12 Este 0 991.2 0.6 97
2020-01-09 09:00:00 2.7 5 Nordeste 14 Noroeste 0 991.1 0.9 98
2020-01-09 08:00:00 0.9 4 Noroeste 14 Norte 0 990.7 0.2 98
2020-01-09 07:00:00 0.4 9 Noroeste 15 Noroeste 0 990.6 -0.2 97
2020-01-09 06:00:00 2 0 Calma 10 Este 0 990.2 -0.1 97
2020-01-09 05:00:00 1.9 4 Este 14 Noroeste 0 990.5 -0.3 97
2020-01-09 04:00:00 2.4 9 Noroeste 18 Noroeste 0 990.8 -0.4 97
2020-01-09 03:00:00 3.6 12 Este 17 Este 0 990.3 -1.3 97
2020-01-09 02:00:00 3.2 6 Este 8 Este 0 990.8 -0.7 95
2020-01-09 01:00:00 4.2 2 Oeste 7 Noroeste 0 991.2 -0.2 95
2020-01-09 00:00:00 4.6 3 Norte 8 Este 0 991.6 0.5 93
2020-01-08 23:00:00 5.6 3 Sudeste 6 Nordeste 0 991.5 0.5 92
2020-01-08 22:00:00 6.5 2 Sudoeste 5 Oeste 0 991.4 0.6 82
2020-01-08 21:00:00 7.6 3 Oeste 3 Oeste 0 991.1 0.5 80
2020-01-08 20:00:00 8.2 0 Calma 3 Nordeste 0 991 0.4 76
2020-01-08 19:00:00 9.2 0 Calma 3 Este 0 990.8 0.2 72
2020-01-08 18:00:00 11.2 0 Calma 7 Sudeste 0 990.6 -0.4 64
2020-01-08 17:00:00 12.6 2 Sur 10 Sudeste 0 990.6 -1.1 62
2020-01-08 16:00:00 12.1 7 Sudeste 10 Sur 0 990.6 -2.2 62
2020-01-08 15:00:00 10.6 3 Sudoeste 8 Oeste 0 991 -2.5 77
2020-01-08 14:00:00 7.3 5 Oeste 10 Oeste 0 991.7 -2.1 97
2020-01-08 13:00:00 4.6 3 Oeste 6 Oeste 0 992.8 -0.5 98
2020-01-08 12:00:00 2.9 2 Oeste 6 Sudoeste 0 993.5 0.6 98
2020-01-08 11:00:00 0.8 2 Sudoeste 9 Este 0 993.8 1.3 98
2020-01-08 10:00:00 -0.5 7 Este 13 Este 0 993.3 1.2 98
2020-01-08 09:00:00 -1.5 8 Este 11 Este 0 992.9 1 98
2020-01-08 08:00:00 -1.2 0 Calma 6 Este 0 992.5 0.3 97
2020-01-08 07:00:00 0.2 5 Este 9 Este 0 992.1 -0.5 97
2020-01-08 06:00:00 0.3 2 Oeste 6 Sudeste 0 991.9 -0.7 97
2020-01-08 05:00:00 1.8 2 Este 6 Noroeste 0 992.2 -0.7 96
2020-01-08 04:00:00 0.7 4 Oeste 8 Noroeste 0 992.6 -0.5 93
2020-01-08 03:00:00 2.6 3 Nordeste 6 Sudeste 0 992.6 -0.8 93
2020-01-08 02:00:00 3.2 0 Calma 5 Oeste 0 992.9 -0.6 91
2020-01-08 01:00:00 4.2 0 Calma 5 Noroeste 0 993.1 -0.4 90
2020-01-08 00:00:00 4.3 4 Noroeste 6 Noroeste 0 993.4 0 86
2020-01-07 23:00:00 5.8 2 Sudeste 6 Este 0 993.5 0.3 79
2020-01-07 22:00:00 6.8 0 Calma 7 Sudeste 0 993.5 0.2 74
2020-01-07 21:00:00 8.2 0 Calma 4 Sur 0 993.4 0.4 69
2020-01-07 20:00:00 9.7 2 Nordeste 4 Este 0 993.2 0.2 63
2020-01-07 19:00:00 10.1 0 Calma 3 Sur 0 993.3 0.1 60
2020-01-07 18:00:00 12.4 2 Sur 6 Oeste 0 993 -0.6 53
2020-01-07 17:00:00 14.2 5 Sudoeste 9 Oeste 0 993 -1.4 53
2020-01-07 16:00:00 14 5 Oeste 9 Sudoeste 0 993.2 -1.9 56
2020-01-07 15:00:00 13.4 3 Este 11 Este 0 993.6 -2.4 56
2020-01-07 14:00:00 11.3 5 Sudeste 12 Sudeste 0 994.4 -1.4 65
2020-01-07 13:00:00 9.8 4 Sur 12 Sudeste 0 995.1 -0.2 67
2020-01-07 12:00:00 7.6 3 Sur 7 Sudeste 0 996 1.2 81
2020-01-07 11:00:00 4.2 3 Sur 5 Sur 0 995.8 1.5 95
2020-01-07 10:00:00 1.5 3 Este 10 Noroeste 0 995.3 1.1 97
2020-01-07 09:00:00 -0.1 0 Calma 4 Oeste 0 994.8 0.5 97
2020-01-07 08:00:00 0.7 0 Calma 7 Noroeste 0 994.3 0.2 97
2020-01-07 07:00:00 0.1 4 Noroeste 6 Noroeste 0 994.2 -0.1 97
2020-01-07 06:00:00 1.2 5 Este 7 Este 0 994.3 0.3 96
2020-01-07 05:00:00 1.4 5 Noroeste 10 Noroeste 0 994.1 0.4 96
2020-01-07 04:00:00 2 3 Este 8 Sudeste 0 994.3 0.7 95
2020-01-07 03:00:00 3.1 3 Este 4 Este 0 994 0.4 94
2020-01-07 02:00:00 3.6 0 Calma 6 Nordeste 0 993.7 0.2 93
2020-01-07 01:00:00 3.6 4 Noroeste 9 Noroeste 0 993.6 0.5 91
2020-01-07 00:00:00 4.1 5 Este 12 Este 0 993.6 0.6 89
2020-01-06 23:00:00 5.6 4 Este 8 Noroeste 0 993.5 0.9 81
2020-01-06 22:00:00 6.3 4 Noroeste 7 Oeste 0 993.1 0.6 76
2020-01-06 21:00:00 7.8 2 Nordeste 4 Nordeste 0 993 1.3 72
2020-01-06 20:00:00 8.4 0 Calma 5 Sur 0 992.6 1.3 69
2020-01-06 19:00:00 9.5 4 Noroeste 6 Noroeste 0 992.5 1.3 67
2020-01-06 18:00:00 11.1 3 Oeste 17 Oeste 0 991.7 0.4 66
2020-01-06 17:00:00 12.7 3 Sudoeste 15 Oeste 0 991.3 -0.4 62
2020-01-06 16:00:00 12.7 4 Sudoeste 10 Oeste 0 991.2 -1.6 62
2020-01-06 15:00:00 11.8 6 Oeste 15 Oeste 0 991.3 -2.4 64
2020-01-06 14:00:00 10.7 5 Oeste 12 Sudeste 0 991.7 -2.3 68
2020-01-06 13:00:00 8.8 5 Sudeste 13 Sudeste 0 992.8 -0.5 72
2020-01-06 12:00:00 6.1 2 Sudoeste 9 Sudeste 0 993.7 1 89
2020-01-06 11:00:00 3.3 2 Sudoeste 8 Oeste 0 994 2 94
2020-01-06 10:00:00 0.5 6 Noroeste 10 Noroeste 0 993.3 1.4 96